Terminal Aerodrome Forecast
Issued by NWS Topeka, KS

Home | Current Version | Previous Version | Text Only | Print | Product List | Glossary Off
Versions: 1 2 3 4 5 6 7 8 9 10 11 12 13 14 15 16 17 18 19 20

000
FTUS43 KTOP 031401 AAA
TAFTOP
TAF AMD
KTOP 031401Z 0314/0412 05005KT 6SM -SHRA BR OVC012
     FM031630 04005KT P6SM SCT015 BKN025
     FM031730 03005KT P6SM SCT040
     FM040600 00000KT 4SM BR SKC=

USA.gov is the U.S. government's official web portal to all federal, state and local government web resources and services.